sensor_id;sensor_type;location;lat;lon;timestamp;pressure;altitude;pressure_sealevel;temperature;humidity
47366;BME280;33105;47.964;7.982;2023-03-03T00:01:14;96881.25;;;-0.59;84.75
47366;BME280;33105;47.964;7.982;2023-03-03T00:04:16;96883.78;;;-0.72;85.37
47366;BME280;33105;47.964;7.982;2023-03-03T00:07:19;96881.41;;;-0.82;85.85
47366;BME280;33105;47.964;7.982;2023-03-03T00:10:23;96892.63;;;-1.08;86.82
47366;BME280;33105;47.964;7.982;2023-03-03T00:13:26;96894.91;;;-1.19;87.26
47366;BME280;33105;47.964;7.982;2023-03-03T00:16:34;96903.16;;;-1.50;88.80
47366;BME280;33105;47.964;7.982;2023-03-03T00:19:38;96901.94;;;-1.48;89.15
47366;BME280;33105;47.964;7.982;2023-03-03T00:22:42;96901.50;;;-1.37;88.97
47366;BME280;33105;47.964;7.982;2023-03-03T00:25:45;96898.91;;;-1.30;89.51
47366;BME280;33105;47.964;7.982;2023-03-03T00:28:48;96896.69;;;-1.26;89.48
47366;BME280;33105;47.964;7.982;2023-03-03T00:31:50;96899.25;;;-1.18;88.94
47366;BME280;33105;47.964;7.982;2023-03-03T00:34:54;96897.78;;;-1.06;88.72
47366;BME280;33105;47.964;7.982;2023-03-03T00:37:58;96895.13;;;-1.06;87.69
47366;BME280;33105;47.964;7.982;2023-03-03T00:41:03;96898.63;;;-1.20;88.53
47366;BME280;33105;47.964;7.982;2023-03-03T00:44:41;96885.78;;;-1.10;88.57
47366;BME280;33105;47.964;7.982;2023-03-03T00:47:44;96899.09;;;-1.02;88.78
47366;BME280;33105;47.964;7.982;2023-03-03T00:50:46;96900.63;;;-0.93;88.07
47366;BME280;33105;47.964;7.982;2023-03-03T00:53:49;96904.63;;;-0.89;87.95
47366;BME280;33105;47.964;7.982;2023-03-03T00:56:50;96900.38;;;-0.83;87.91
47366;BME280;33105;47.964;7.982;2023-03-03T00:59:53;96900.63;;;-0.78;86.67
47366;BME280;33105;47.964;7.982;2023-03-03T01:02:56;96902.31;;;-0.77;87.40
47366;BME280;33105;47.964;7.982;2023-03-03T01:06:00;96904.53;;;-0.81;87.08
47366;BME280;33105;47.964;7.982;2023-03-03T01:09:01;96910.63;;;-0.87;87.24
47366;BME280;33105;47.964;7.982;2023-03-03T01:12:03;96910.78;;;-0.74;86.58
47366;BME280;33105;47.964;7.982;2023-03-03T01:15:07;96906.50;;;-1.04;88.23
47366;BME280;33105;47.964;7.982;2023-03-03T01:18:12;96906.00;;;-0.93;88.48
47366;BME280;33105;47.964;7.982;2023-03-03T01:21:14;96890.09;;;-0.80;87.71
47366;BME280;33105;47.964;7.982;2023-03-03T01:24:17;96901.72;;;-0.73;87.93
47366;BME280;33105;47.964;7.982;2023-03-03T01:27:18;96896.25;;;-0.64;87.76
47366;BME280;33105;47.964;7.982;2023-03-03T01:30:20;96890.78;;;-0.56;87.49
47366;BME280;33105;47.964;7.982;2023-03-03T01:33:22;96894.09;;;-0.54;86.76
47366;BME280;33105;47.964;7.982;2023-03-03T01:36:25;96897.44;;;-0.52;86.92
47366;BME280;33105;47.964;7.982;2023-03-03T01:39:29;96893.13;;;-0.47;86.91
47366;BME280;33105;47.964;7.982;2023-03-03T01:42:31;96904.22;;;-0.35;87.00
47366;BME280;33105;47.964;7.982;2023-03-03T01:48:50;96897.44;;;-0.52;87.11
47366;BME280;33105;47.964;7.982;2023-03-03T01:51:57;96898.31;;;-0.45;87.59
47366;BME280;33105;47.964;7.982;2023-03-03T01:55:24;96887.78;;;-0.47;87.02
47366;BME280;33105;47.964;7.982;2023-03-03T01:58:28;96877.88;;;-0.46;87.36
47366;BME280;33105;47.964;7.982;2023-03-03T02:01:32;96877.63;;;-0.51;87.49
47366;BME280;33105;47.964;7.982;2023-03-03T02:04:34;96880.88;;;-0.56;87.25
47366;BME280;33105;47.964;7.982;2023-03-03T02:07:37;96878.00;;;-0.54;87.66
47366;BME280;33105;47.964;7.982;2023-03-03T02:10:39;96873.59;;;-0.41;87.38
47366;BME280;33105;47.964;7.982;2023-03-03T02:13:40;96874.88;;;-0.37;86.60
47366;BME280;33105;47.964;7.982;2023-03-03T02:16:43;96867.47;;;-0.35;86.78
47366;BME280;33105;47.964;7.982;2023-03-03T02:27:03;96874.69;;;-0.56;86.97
47366;BME280;33105;47.964;7.982;2023-03-03T02:30:19;96875.44;;;-0.62;86.48
47366;BME280;33105;47.964;7.982;2023-03-03T02:33:21;96869.66;;;-0.81;88.38
47366;BME280;33105;47.964;7.982;2023-03-03T02:36:27;96867.81;;;-0.80;88.63
47366;BME280;33105;47.964;7.982;2023-03-03T02:39:30;96868.13;;;-0.69;88.24
47366;BME280;33105;47.964;7.982;2023-03-03T02:42:32;96864.81;;;-0.71;87.74
47366;BME280;33105;47.964;7.982;2023-03-03T02:45:41;96858.38;;;-0.76;87.87
47366;BME280;33105;47.964;7.982;2023-03-03T02:48:42;96864.09;;;-0.79;88.34
47366;BME280;33105;47.964;7.982;2023-03-03T02:51:44;96860.47;;;-0.72;88.35
47366;BME280;33105;47.964;7.982;2023-03-03T02:54:46;96850.94;;;-0.74;88.21
47366;BME280;33105;47.964;7.982;2023-03-03T02:57:48;96858.38;;;-0.76;88.44
47366;BME280;33105;47.964;7.982;2023-03-03T03:00:50;96857.34;;;-0.90;88.19
47366;BME280;33105;47.964;7.982;2023-03-03T03:03:57;96864.97;;;-1.08;89.27
47366;BME280;33105;47.964;7.982;2023-03-03T03:06:59;96860.63;;;-1.09;90.17
47366;BME280;33105;47.964;7.982;2023-03-03T03:10:03;96850.66;;;-1.00;89.47
47366;BME280;33105;47.964;7.982;2023-03-03T03:13:08;96849.81;;;-1.01;90.03
47366;BME280;33105;47.964;7.982;2023-03-03T03:16:10;96850.50;;;-1.28;89.37
47366;BME280;33105;47.964;7.982;2023-03-03T03:19:12;96843.25;;;-1.43;90.44
47366;BME280;33105;47.964;7.982;2023-03-03T03:22:16;96845.88;;;-1.34;90.19
47366;BME280;33105;47.964;7.982;2023-03-03T03:25:20;96855.47;;;-1.25;89.56
47366;BME280;33105;47.964;7.982;2023-03-03T03:28:22;96857.50;;;-1.27;89.39
47366;BME280;33105;47.964;7.982;2023-03-03T03:31:24;96860.53;;;-1.45;88.81
47366;BME280;33105;47.964;7.982;2023-03-03T03:34:27;96863.97;;;-1.37;89.29
47366;BME280;33105;47.964;7.982;2023-03-03T03:37:31;96869.25;;;-1.28;89.14
47366;BME280;33105;47.964;7.982;2023-03-03T03:40:34;96874.03;;;-1.39;89.30
47366;BME280;33105;47.964;7.982;2023-03-03T03:43:35;96875.13;;;-1.48;89.22
47366;BME280;33105;47.964;7.982;2023-03-03T03:46:38;96880.31;;;-1.61;90.62
47366;BME280;33105;47.964;7.982;2023-03-03T03:49:39;96884.84;;;-1.47;90.29
47366;BME280;33105;47.964;7.982;2023-03-03T03:52:41;96879.59;;;-1.55;90.87
47366;BME280;33105;47.964;7.982;2023-03-03T03:55:45;96877.91;;;-1.41;91.13
47366;BME280;33105;47.964;7.982;2023-03-03T03:58:48;96884.22;;;-1.34;89.80
47366;BME280;33105;47.964;7.982;2023-03-03T04:01:50;96878.19;;;-1.36;90.00
47366;BME280;33105;47.964;7.982;2023-03-03T04:04:54;96880.13;;;-1.45;91.11
47366;BME280;33105;47.964;7.982;2023-03-03T04:07:55;96877.38;;;-1.37;90.61
47366;BME280;33105;47.964;7.982;2023-03-03T04:10:57;96886.16;;;-1.28;90.36
47366;BME280;33105;47.964;7.982;2023-03-03T04:14:01;96886.78;;;-1.11;89.85
47366;BME280;33105;47.964;7.982;2023-03-03T04:17:03;96884.75;;;-1.09;88.35
47366;BME280;33105;47.964;7.982;2023-03-03T04:20:06;96886.34;;;-1.29;88.88
47366;BME280;33105;47.964;7.982;2023-03-03T04:23:08;96892.34;;;-1.27;89.29
47366;BME280;33105;47.964;7.982;2023-03-03T04:26:11;96896.41;;;-1.31;89.22
47366;BME280;33105;47.964;7.982;2023-03-03T04:29:13;96905.38;;;-1.54;90.08
47366;BME280;33105;47.964;7.982;2023-03-03T04:32:17;96911.44;;;-1.45;90.09
47366;BME280;33105;47.964;7.982;2023-03-03T04:35:21;96909.41;;;-1.58;89.90
47366;BME280;33105;47.964;7.982;2023-03-03T04:38:23;96908.22;;;-1.55;90.95
47366;BME280;33105;47.964;7.982;2023-03-03T04:41:25;96901.09;;;-1.48;90.69
47366;BME280;33105;47.964;7.982;2023-03-03T04:44:27;96896.13;;;-1.37;90.55
47366;BME280;33105;47.964;7.982;2023-03-03T04:47:30;96893.63;;;-1.38;89.82
47366;BME280;33105;47.964;7.982;2023-03-03T04:50:33;96892.91;;;-1.32;89.77
47366;BME280;33105;47.964;7.982;2023-03-03T04:53:36;96897.59;;;-1.34;90.83
47366;BME280;33105;47.964;7.982;2023-03-03T04:56:39;96892.59;;;-1.22;90.12
47366;BME280;33105;47.964;7.982;2023-03-03T04:59:40;96900.13;;;-1.03;89.41
47366;BME280;33105;47.964;7.982;2023-03-03T05:02:43;96889.63;;;-0.98;88.92
47366;BME280;33105;47.964;7.982;2023-03-03T05:05:45;96895.91;;;-0.91;88.50
47366;BME280;33105;47.964;7.982;2023-03-03T05:08:48;96891.75;;;-0.79;88.28
47366;BME280;33105;47.964;7.982;2023-03-03T05:11:50;96897.13;;;-0.79;88.29
47366;BME280;33105;47.964;7.982;2023-03-03T05:14:52;96899.22;;;-0.74;88.23
47366;BME280;33105;47.964;7.982;2023-03-03T05:17:53;96900.78;;;-0.65;87.77
47366;BME280;33105;47.964;7.982;2023-03-03T05:20:57;96900.03;;;-0.59;87.81
47366;BME280;33105;47.964;7.982;2023-03-03T05:23:59;96905.69;;;-0.54;87.17
47366;BME280;33105;47.964;7.982;2023-03-03T05:27:01;96901.88;;;-0.59;87.60
47366;BME280;33105;47.964;7.982;2023-03-03T05:30:03;96895.34;;;-0.72;88.18
47366;BME280;33105;47.964;7.982;2023-03-03T05:33:07;96901.28;;;-0.91;89.51
47366;BME280;33105;47.964;7.982;2023-03-03T05:36:08;96908.94;;;-0.73;89.08
47366;BME280;33105;47.964;7.982;2023-03-03T05:39:11;96899.31;;;-0.68;88.95
47366;BME280;33105;47.964;7.982;2023-03-03T05:42:13;96897.09;;;-0.64;89.14
47366;BME280;33105;47.964;7.982;2023-03-03T05:45:15;96910.22;;;-0.54;87.93
47366;BME280;33105;47.964;7.982;2023-03-03T05:48:17;96898.31;;;-0.45;87.91
47366;BME280;33105;47.964;7.982;2023-03-03T05:51:18;96910.63;;;-0.36;88.03
47366;BME280;33105;47.964;7.982;2023-03-03T05:54:19;96906.84;;;-0.20;87.90
47366;BME280;33105;47.964;7.982;2023-03-03T05:57:22;96912.56;;;-0.09;87.00
47366;BME280;33105;47.964;7.982;2023-03-03T06:00:25;96906.16;;;-0.08;86.47
47366;BME280;33105;47.964;7.982;2023-03-03T06:03:28;96916.00;;;-0.15;86.29
47366;BME280;33105;47.964;7.982;2023-03-03T06:06:30;96917.41;;;-0.19;86.84
47366;BME280;33105;47.964;7.982;2023-03-03T06:09:32;96912.22;;;-0.20;87.04
47366;BME280;33105;47.964;7.982;2023-03-03T06:12:34;96921.47;;;-0.23;87.74
47366;BME280;33105;47.964;7.982;2023-03-03T06:15:39;96922.13;;;-0.21;87.69
47366;BME280;33105;47.964;7.982;2023-03-03T06:18:41;96914.53;;;-0.17;87.31
47366;BME280;33105;47.964;7.982;2023-03-03T06:21:42;96918.03;;;-0.17;87.15
47366;BME280;33105;47.964;7.982;2023-03-03T06:24:44;96929.44;;;-0.15;87.99
47366;BME280;33105;47.964;7.982;2023-03-03T06:27:47;96929.03;;;-0.12;88.16
47366;BME280;33105;47.964;7.982;2023-03-03T06:30:55;96927.66;;;-0.08;87.71
47366;BME280;33105;47.964;7.982;2023-03-03T06:33:56;96928.75;;;-0.02;87.40
47366;BME280;33105;47.964;7.982;2023-03-03T06:36:58;96934.69;;;-0.07;88.13
47366;BME280;33105;47.964;7.982;2023-03-03T06:40:00;96927.19;;;0.10;87.95
47366;BME280;33105;47.964;7.982;2023-03-03T06:43:01;96934.59;;;0.08;87.39
47366;BME280;33105;47.964;7.982;2023-03-03T06:46:04;96932.06;;;0.21;86.91
47366;BME280;33105;47.964;7.982;2023-03-03T06:49:06;96940.81;;;0.30;86.43
47366;BME280;33105;47.964;7.982;2023-03-03T06:52:13;96933.00;;;0.35;86.26
47366;BME280;33105;47.964;7.982;2023-03-03T06:55:21;96936.97;;;0.39;86.17
47366;BME280;33105;47.964;7.982;2023-03-03T06:58:25;96930.94;;;0.37;85.47
47366;BME280;33105;47.964;7.982;2023-03-03T07:01:33;96946.19;;;0.30;85.43
47366;BME280;33105;47.964;7.982;2023-03-03T07:04:35;96948.41;;;0.26;85.52
47366;BME280;33105;47.964;7.982;2023-03-03T07:07:40;96953.84;;;0.33;85.77
47366;BME280;33105;47.964;7.982;2023-03-03T07:10:42;96959.41;;;0.31;85.53
47366;BME280;33105;47.964;7.982;2023-03-03T07:13:52;96954.50;;;0.35;85.58
47366;BME280;33105;47.964;7.982;2023-03-03T07:16:59;96956.69;;;0.46;85.22
47366;BME280;33105;47.964;7.982;2023-03-03T07:20:17;96970.78;;;0.55;86.07
47366;BME280;33105;47.964;7.982;2023-03-03T07:23:24;96967.81;;;0.43;86.46
47366;BME280;33105;47.964;7.982;2023-03-03T07:26:31;96969.19;;;0.60;85.74
47366;BME280;33105;47.964;7.982;2023-03-03T07:29:36;96973.41;;;0.70;84.87
47366;BME280;33105;47.964;7.982;2023-03-03T07:32:43;96969.09;;;0.75;84.88
47366;BME280;33105;47.964;7.982;2023-03-03T07:35:45;96983.66;;;0.87;84.38
47366;BME280;33105;47.964;7.982;2023-03-03T07:38:53;96982.91;;;1.00;83.98
47366;BME280;33105;47.964;7.982;2023-03-03T07:42:20;96980.22;;;1.00;84.51
47366;BME280;33105;47.964;7.982;2023-03-03T07:45:33;96975.50;;;1.02;84.72
47366;BME280;33105;47.964;7.982;2023-03-03T07:48:38;96978.66;;;1.12;84.11
47366;BME280;33105;47.964;7.982;2023-03-03T07:51:41;96989.03;;;1.15;83.89
47366;BME280;33105;47.964;7.982;2023-03-03T07:54:47;96985.41;;;1.29;83.83
47366;BME280;33105;47.964;7.982;2023-03-03T07:58:22;96993.94;;;1.40;83.72
47366;BME280;33105;47.964;7.982;2023-03-03T08:09:37;96994.31;;;1.71;84.28
47366;BME280;33105;47.964;7.982;2023-03-03T08:13:41;97000.94;;;1.68;84.05
47366;BME280;33105;47.964;7.982;2023-03-03T08:21:51;96995.91;;;2.13;82.10
47366;BME280;33105;47.964;7.982;2023-03-03T08:25:11;96994.47;;;2.24;82.64
47366;BME280;33105;47.964;7.982;2023-03-03T08:28:13;97001.56;;;2.38;82.26
47366;BME280;33105;47.964;7.982;2023-03-03T08:31:16;97002.44;;;2.45;81.55
47366;BME280;33105;47.964;7.982;2023-03-03T08:34:18;96996.19;;;2.51;82.24
47366;BME280;33105;47.964;7.982;2023-03-03T08:37:20;96999.53;;;2.66;82.13
47366;BME280;33105;47.964;7.982;2023-03-03T08:40:22;96992.69;;;2.77;80.93
47366;BME280;33105;47.964;7.982;2023-03-03T08:43:24;97000.78;;;2.84;81.18
47366;BME280;33105;47.964;7.982;2023-03-03T08:46:27;96993.75;;;2.96;81.05
47366;BME280;33105;47.964;7.982;2023-03-03T08:49:29;96993.31;;;2.99;80.98
47366;BME280;33105;47.964;7.982;2023-03-03T08:52:31;97000.16;;;3.15;80.40
47366;BME280;33105;47.964;7.982;2023-03-03T08:55:34;97003.66;;;3.22;80.74
47366;BME280;33105;47.964;7.982;2023-03-03T08:58:36;96998.88;;;3.30;79.98
47366;BME280;33105;47.964;7.982;2023-03-03T09:01:38;96996.56;;;3.47;79.59
47366;BME280;33105;47.964;7.982;2023-03-03T09:04:39;96996.13;;;3.57;78.96
47366;BME280;33105;47.964;7.982;2023-03-03T09:07:41;96994.25;;;3.51;79.38
47366;BME280;33105;47.964;7.982;2023-03-03T09:10:42;96992.78;;;3.68;77.78
47366;BME280;33105;47.964;7.982;2023-03-03T09:13:44;96992.53;;;3.76;78.54
47366;BME280;33105;47.964;7.982;2023-03-03T09:16:51;96992.34;;;3.71;79.21
47366;BME280;33105;47.964;7.982;2023-03-03T09:19:57;96996.88;;;3.77;79.14
47366;BME280;33105;47.964;7.982;2023-03-03T09:23:35;96999.38;;;3.79;78.85
47366;BME280;33105;47.964;7.982;2023-03-03T09:26:47;96988.06;;;4.01;77.89
47366;BME280;33105;47.964;7.982;2023-03-03T09:29:49;96989.81;;;4.21;77.89
47366;BME280;33105;47.964;7.982;2023-03-03T09:32:52;96990.16;;;4.37;76.12
47366;BME280;33105;47.964;7.982;2023-03-03T09:36:02;96991.53;;;4.53;77.12
47366;BME280;33105;47.964;7.982;2023-03-03T09:39:25;96995.19;;;4.65;74.67
47366;BME280;33105;47.964;7.982;2023-03-03T09:46:06;96985.97;;;4.73;72.30
47366;BME280;33105;47.964;7.982;2023-03-03T09:49:23;96990.09;;;4.75;73.10
47366;BME280;33105;47.964;7.982;2023-03-03T09:56:02;96981.72;;;4.84;73.07
47366;BME280;33105;47.964;7.982;2023-03-03T10:05:54;96993.25;;;4.72;70.69
47366;BME280;33105;47.964;7.982;2023-03-03T10:09:36;97002.28;;;4.66;70.17
47366;BME280;33105;47.964;7.982;2023-03-03T10:12:56;96996.06;;;4.21;70.72
47366;BME280;33105;47.964;7.982;2023-03-03T10:16:13;96992.34;;;4.85;72.02
47366;BME280;33105;47.964;7.982;2023-03-03T10:23:14;96987.56;;;5.30;70.93
47366;BME280;33105;47.964;7.982;2023-03-03T10:26:47;96992.88;;;5.43;70.05
47366;BME280;33105;47.964;7.982;2023-03-03T10:30:12;96992.75;;;5.32;66.28
47366;BME280;33105;47.964;7.982;2023-03-03T10:33:17;96991.44;;;5.41;69.37
47366;BME280;33105;47.964;7.982;2023-03-03T10:36:28;96990.00;;;5.75;67.61
47366;BME280;33105;47.964;7.982;2023-03-03T10:43:21;96988.69;;;6.02;67.75
47366;BME280;33105;47.964;7.982;2023-03-03T10:53:20;96991.13;;;6.22;63.96
47366;BME280;33105;47.964;7.982;2023-03-03T10:57:02;96984.25;;;6.38;64.37
47366;BME280;33105;47.964;7.982;2023-03-03T11:07:20;96978.63;;;6.51;64.72
47366;BME280;33105;47.964;7.982;2023-03-03T11:17:46;96986.91;;;6.56;64.21
47366;BME280;33105;47.964;7.982;2023-03-03T11:37:49;96974.16;;;7.22;61.50
47366;BME280;33105;47.964;7.982;2023-03-03T11:41:00;96962.13;;;7.06;62.53
47366;BME280;33105;47.964;7.982;2023-03-03T11:44:16;96961.25;;;6.94;65.58
47366;BME280;33105;47.964;7.982;2023-03-03T11:47:36;96961.06;;;7.18;62.87
47366;BME280;33105;47.964;7.982;2023-03-03T11:50:45;96969.56;;;7.10;64.06
47366;BME280;33105;47.964;7.982;2023-03-03T11:54:18;96958.69;;;7.22;62.05
47366;BME280;33105;47.964;7.982;2023-03-03T11:57:31;96960.00;;;7.20;63.75
47366;BME280;33105;47.964;7.982;2023-03-03T12:00:40;96962.50;;;7.33;63.27
47366;BME280;33105;47.964;7.982;2023-03-03T12:04:03;96963.91;;;7.35;60.83
47366;BME280;33105;47.964;7.982;2023-03-03T12:17:35;96959.31;;;7.12;62.24
47366;BME280;33105;47.964;7.982;2023-03-03T12:20:51;96949.34;;;7.53;62.06
47366;BME280;33105;47.964;7.982;2023-03-03T12:27:28;96938.59;;;7.58;62.80
47366;BME280;33105;47.964;7.982;2023-03-03T12:30:48;96944.72;;;7.77;61.80
47366;BME280;33105;47.964;7.982;2023-03-03T12:40:56;96946.88;;;7.28;63.52
47366;BME280;33105;47.964;7.982;2023-03-03T12:47:28;96923.94;;;7.47;64.05
47366;BME280;33105;47.964;7.982;2023-03-03T12:50:41;96928.22;;;7.20;64.75
47366;BME280;33105;47.964;7.982;2023-03-03T12:54:09;96934.38;;;7.04;63.39
47366;BME280;33105;47.964;7.982;2023-03-03T12:57:39;96928.63;;;6.70;63.43
47366;BME280;33105;47.964;7.982;2023-03-03T13:04:41;96929.00;;;6.74;66.33
47366;BME280;33105;47.964;7.982;2023-03-03T13:08:08;96923.94;;;6.77;64.18
47366;BME280;33105;47.964;7.982;2023-03-03T13:14:55;96930.47;;;7.00;64.22
47366;BME280;33105;47.964;7.982;2023-03-03T13:28:35;96928.19;;;7.43;63.32
47366;BME280;33105;47.964;7.982;2023-03-03T13:31:45;96915.88;;;7.76;62.54
47366;BME280;33105;47.964;7.982;2023-03-03T13:38:01;96917.69;;;7.99;62.33
47366;BME280;33105;47.964;7.982;2023-03-03T13:44:37;96915.66;;;7.66;62.04
47366;BME280;33105;47.964;7.982;2023-03-03T13:47:48;96917.63;;;7.70;63.14
47366;BME280;33105;47.964;7.982;2023-03-03T13:50:56;96914.09;;;7.70;62.18
47366;BME280;33105;47.964;7.982;2023-03-03T13:57:41;96924.22;;;7.34;63.11
47366;BME280;33105;47.964;7.982;2023-03-03T14:01:00;96925.47;;;7.55;63.34
47366;BME280;33105;47.964;7.982;2023-03-03T14:04:37;96921.94;;;7.43;64.45
47366;BME280;33105;47.964;7.982;2023-03-03T14:12:31;96907.88;;;7.46;65.37
47366;BME280;33105;47.964;7.982;2023-03-03T14:15:20;96913.53;;;6.74;65.71
47366;BME280;33105;47.964;7.982;2023-03-03T14:25:14;96912.03;;;7.25;66.10
47366;BME280;33105;47.964;7.982;2023-03-03T14:28:18;96910.81;;;7.44;64.84
47366;BME280;33105;47.964;7.982;2023-03-03T14:31:24;96906.59;;;7.37;64.64
47366;BME280;33105;47.964;7.982;2023-03-03T14:37:44;96910.25;;;7.19;64.28
47366;BME280;33105;47.964;7.982;2023-03-03T14:40:47;96902.22;;;7.24;64.92
47366;BME280;33105;47.964;7.982;2023-03-03T14:43:56;96902.69;;;7.21;67.04
47366;BME280;33105;47.964;7.982;2023-03-03T14:53:49;96893.47;;;7.45;64.89
47366;BME280;33105;47.964;7.982;2023-03-03T14:57:12;96898.84;;;7.69;64.40
47366;BME280;33105;47.964;7.982;2023-03-03T15:03:26;96885.94;;;7.76;63.73
47366;BME280;33105;47.964;7.982;2023-03-03T15:09:38;96904.69;;;7.61;64.07
47366;BME280;33105;47.964;7.982;2023-03-03T15:12:45;96903.38;;;7.51;63.72
47366;BME280;33105;47.964;7.982;2023-03-03T15:19:37;96891.00;;;7.32;66.14
47366;BME280;33105;47.964;7.982;2023-03-03T15:33:52;96886.53;;;7.38;65.23
47366;BME280;33105;47.964;7.982;2023-03-03T15:49:59;96910.25;;;7.31;65.27
47366;BME280;33105;47.964;7.982;2023-03-03T15:56:42;96909.44;;;6.83;66.19
47366;BME280;33105;47.964;7.982;2023-03-03T16:00:17;96907.41;;;6.79;65.57
47366;BME280;33105;47.964;7.982;2023-03-03T16:03:32;96912.34;;;6.70;66.98
47366;BME280;33105;47.964;7.982;2023-03-03T16:13:37;96910.50;;;5.99;69.58
47366;BME280;33105;47.964;7.982;2023-03-03T16:17:30;96915.78;;;6.24;68.48
47366;BME280;33105;47.964;7.982;2023-03-03T16:23:58;96928.72;;;6.10;68.62
47366;BME280;33105;47.964;7.982;2023-03-03T16:27:12;96923.28;;;6.10;69.40
47366;BME280;33105;47.964;7.982;2023-03-03T16:33:47;96938.38;;;5.88;69.23
47366;BME280;33105;47.964;7.982;2023-03-03T16:37:13;96948.63;;;5.68;70.39
47366;BME280;33105;47.964;7.982;2023-03-03T16:43:53;96959.06;;;5.46;70.00
47366;BME280;33105;47.964;7.982;2023-03-03T16:47:14;96963.66;;;5.45;71.05
47366;BME280;33105;47.964;7.982;2023-03-03T16:56:53;96982.38;;;5.04;72.25
47366;BME280;33105;47.964;7.982;2023-03-03T17:00:14;96981.78;;;5.02;72.62
47366;BME280;33105;47.964;7.982;2023-03-03T17:09:52;96994.88;;;4.80;74.68
47366;BME280;33105;47.964;7.982;2023-03-03T17:13:26;97001.28;;;4.86;73.40
47366;BME280;33105;47.964;7.982;2023-03-03T17:16:40;97006.72;;;4.86;73.19
47366;BME280;33105;47.964;7.982;2023-03-03T17:24:01;97006.34;;;4.75;74.26
47366;BME280;33105;47.964;7.982;2023-03-03T17:34:28;97008.81;;;4.45;75.60
47366;BME280;33105;47.964;7.982;2023-03-03T17:41:22;97016.66;;;4.22;75.18
47366;BME280;33105;47.964;7.982;2023-03-03T17:44:41;97026.28;;;4.12;76.37
47366;BME280;33105;47.964;7.982;2023-03-03T17:47:59;97036.28;;;4.04;75.56
47366;BME280;33105;47.964;7.982;2023-03-03T17:55:10;97046.16;;;3.72;76.65
47366;BME280;33105;47.964;7.982;2023-03-03T18:08:54;97062.19;;;3.54;77.91
47366;BME280;33105;47.964;7.982;2023-03-03T18:12:00;97062.63;;;3.58;78.00
47366;BME280;33105;47.964;7.982;2023-03-03T18:21:56;97067.19;;;3.51;78.01
47366;BME280;33105;47.964;7.982;2023-03-03T18:25:11;97071.56;;;3.52;77.79
47366;BME280;33105;47.964;7.982;2023-03-03T18:28:21;97071.38;;;3.33;77.97
47366;BME280;33105;47.964;7.982;2023-03-03T18:31:24;97072.19;;;3.54;77.47
47366;BME280;33105;47.964;7.982;2023-03-03T18:34:40;97077.63;;;3.14;79.44
47366;BME280;33105;47.964;7.982;2023-03-03T18:37:42;97077.19;;;3.17;79.24
47366;BME280;33105;47.964;7.982;2023-03-03T18:44:23;97082.16;;;3.07;80.05
47366;BME280;33105;47.964;7.982;2023-03-03T18:51:07;97086.72;;;3.00;79.78
47366;BME280;33105;47.964;7.982;2023-03-03T18:57:23;97092.34;;;2.92;80.63
47366;BME280;33105;47.964;7.982;2023-03-03T19:00:28;97093.16;;;2.86;80.89
47366;BME280;33105;47.964;7.982;2023-03-03T19:03:54;97091.72;;;2.90;80.61
47366;BME280;33105;47.964;7.982;2023-03-03T19:07:12;97094.00;;;2.93;80.62
47366;BME280;33105;47.964;7.982;2023-03-03T19:13:37;97102.28;;;2.85;81.02
47366;BME280;33105;47.964;7.982;2023-03-03T19:16:40;97094.59;;;2.68;80.75
47366;BME280;33105;47.964;7.982;2023-03-03T19:20:10;97099.53;;;2.58;81.61
47366;BME280;33105;47.964;7.982;2023-03-03T19:23:18;97097.47;;;2.60;81.71
47366;BME280;33105;47.964;7.982;2023-03-03T19:40:04;97109.25;;;2.46;81.77
47366;BME280;33105;47.964;7.982;2023-03-03T20:06:54;97134.13;;;2.00;83.00
47366;BME280;33105;47.964;7.982;2023-03-03T20:26:24;97146.78;;;2.07;82.16
47366;BME280;33105;47.964;7.982;2023-03-03T20:35:02;97153.16;;;1.99;82.17
47366;BME280;33105;47.964;7.982;2023-03-03T20:38:39;97146.31;;;1.62;82.93
47366;BME280;33105;47.964;7.982;2023-03-03T20:48:33;97154.88;;;1.72;82.69
47366;BME280;33105;47.964;7.982;2023-03-03T20:52:36;97149.16;;;1.54;83.65
47366;BME280;33105;47.964;7.982;2023-03-03T20:59:08;97164.84;;;1.22;85.35
47366;BME280;33105;47.964;7.982;2023-03-03T21:02:29;97163.47;;;1.33;85.02
47366;BME280;33105;47.964;7.982;2023-03-03T21:05:33;97161.63;;;1.12;85.65
47366;BME280;33105;47.964;7.982;2023-03-03T21:08:47;97159.47;;;1.22;85.64
47366;BME280;33105;47.964;7.982;2023-03-03T21:11:50;97158.53;;;1.36;84.83
47366;BME280;33105;47.964;7.982;2023-03-03T21:15:03;97166.22;;;1.40;84.74
47366;BME280;33105;47.964;7.982;2023-03-03T21:18:20;97155.69;;;1.17;85.40
47366;BME280;33105;47.964;7.982;2023-03-03T21:21:24;97166.44;;;1.17;85.61
47366;BME280;33105;47.964;7.982;2023-03-03T21:24:55;97172.78;;;1.30;84.66
47366;BME280;33105;47.964;7.982;2023-03-03T21:31:43;97163.66;;;1.31;84.17
47366;BME280;33105;47.964;7.982;2023-03-03T21:34:45;97162.56;;;1.47;84.17
47366;BME280;33105;47.964;7.982;2023-03-03T21:37:55;97166.97;;;1.55;83.02
47366;BME280;33105;47.964;7.982;2023-03-03T21:40:59;97176.56;;;1.15;84.98
47366;BME280;33105;47.964;7.982;2023-03-03T21:47:52;97172.56;;;1.32;83.99
47366;BME280;33105;47.964;7.982;2023-03-03T21:50:58;97169.94;;;1.39;83.57
47366;BME280;33105;47.964;7.982;2023-03-03T21:53:59;97169.47;;;1.56;82.91
47366;BME280;33105;47.964;7.982;2023-03-03T21:57:01;97164.63;;;1.45;83.54
47366;BME280;33105;47.964;7.982;2023-03-03T22:00:05;97170.16;;;1.65;83.16
47366;BME280;33105;47.964;7.982;2023-03-03T22:03:10;97169.91;;;1.60;81.92
47366;BME280;33105;47.964;7.982;2023-03-03T22:06:12;97173.56;;;1.52;83.23
47366;BME280;33105;47.964;7.982;2023-03-03T22:09:13;97167.91;;;1.68;81.89
47366;BME280;33105;47.964;7.982;2023-03-03T22:12:16;97170.81;;;1.67;82.21
47366;BME280;33105;47.964;7.982;2023-03-03T22:15:22;97165.16;;;1.62;82.00
47366;BME280;33105;47.964;7.982;2023-03-03T22:18:24;97170.81;;;1.67;81.86
47366;BME280;33105;47.964;7.982;2023-03-03T22:21:25;97170.81;;;1.67;81.73
47366;BME280;33105;47.964;7.982;2023-03-03T22:24:27;97175.00;;;1.76;81.14
47366;BME280;33105;47.964;7.982;2023-03-03T22:27:29;97167.59;;;1.85;81.54
47366;BME280;33105;47.964;7.982;2023-03-03T22:30:38;97168.81;;;1.82;81.15
47366;BME280;33105;47.964;7.982;2023-03-03T22:33:47;97168.34;;;1.72;80.49
47366;BME280;33105;47.964;7.982;2023-03-03T22:36:49;97166.56;;;1.58;81.62